Wickett, Texas
Current Conditions -  °F | °C
As of 9:53 AM on Thursday 29 Jan 2015 (Local Time) from KINK Reporting Station
Clear Clear  
Wind Chill: 57°   Ceiling: Unl
Heat Index: 57°   Visibility: 10mi
Dew Point: 32°   Wind: 18mph
Humidity: 39%   Direction: 60°ENE
Pressure: 30.3"   Gusts: 29mph
Location:  31.57°N, 103°W
Report Text: KINK 291553Z AUTO 06016G25KT 10SM CLR 14/00 A3030 RMK AO2 PK WND 06027/1531 SLP238 T01390000
Loading
Personal Weather Stations






























Interactive Weather Map New forecast layout! Learn more

10-Day Weather Forecast

Advertisements
Track Severe Weather on mobile